sensor_id;sensor_type;location;lat;lon;timestamp;temperature;humidity
14095;DHT22;18096;48.142;16.290;2023-11-19T00:02:08;4.10;99.90
14095;DHT22;18096;48.142;16.290;2023-11-19T00:04:37;4.10;99.90
14095;DHT22;18096;48.142;16.290;2023-11-19T00:07:05;4.10;99.90
14095;DHT22;18096;48.142;16.290;2023-11-19T00:09:32;4.10;99.90
14095;DHT22;18096;48.142;16.290;2023-11-19T00:11:58;4.10;99.90
14095;DHT22;18096;48.142;16.290;2023-11-19T00:14:26;4.10;99.90
14095;DHT22;18096;48.142;16.290;2023-11-19T00:16:51;4.00;99.90
14095;DHT22;18096;48.142;16.290;2023-11-19T00:19:20;4.00;99.90
14095;DHT22;18096;48.142;16.290;2023-11-19T00:21:46;4.10;99.90
14095;DHT22;18096;48.142;16.290;2023-11-19T00:24:12;4.00;99.90
14095;DHT22;18096;48.142;16.290;2023-11-19T00:26:38;4.00;99.90
14095;DHT22;18096;48.142;16.290;2023-11-19T00:29:04;4.00;99.90
14095;DHT22;18096;48.142;16.290;2023-11-19T00:31:30;4.00;99.90
14095;DHT22;18096;48.142;16.290;2023-11-19T00:33:56;4.00;99.90
14095;DHT22;18096;48.142;16.290;2023-11-19T00:36:21;4.00;99.90
14095;DHT22;18096;48.142;16.290;2023-11-19T00:38:49;4.00;99.90
14095;DHT22;18096;48.142;16.290;2023-11-19T00:41:15;4.00;99.90
14095;DHT22;18096;48.142;16.290;2023-11-19T00:43:42;4.00;99.90
14095;DHT22;18096;48.142;16.290;2023-11-19T00:46:08;4.00;99.90
14095;DHT22;18096;48.142;16.290;2023-11-19T00:48:34;4.10;99.90
14095;DHT22;18096;48.142;16.290;2023-11-19T00:50:59;4.10;99.90
14095;DHT22;18096;48.142;16.290;2023-11-19T00:53:25;4.10;99.90
14095;DHT22;18096;48.142;16.290;2023-11-19T00:55:50;4.10;99.90
14095;DHT22;18096;48.142;16.290;2023-11-19T00:58:17;4.10;99.90
14095;DHT22;18096;48.142;16.290;2023-11-19T01:00:43;4.10;99.90
14095;DHT22;18096;48.142;16.290;2023-11-19T01:03:10;4.10;99.90
14095;DHT22;18096;48.142;16.290;2023-11-19T01:05:37;4.10;99.90
14095;DHT22;18096;48.142;16.290;2023-11-19T01:08:02;4.10;99.90
14095;DHT22;18096;48.142;16.290;2023-11-19T01:10:30;4.10;99.90
14095;DHT22;18096;48.142;16.290;2023-11-19T01:12:56;4.10;99.90
14095;DHT22;18096;48.142;16.290;2023-11-19T01:15:21;4.10;99.90
14095;DHT22;18096;48.142;16.290;2023-11-19T01:17:48;4.10;99.90
14095;DHT22;18096;48.142;16.290;2023-11-19T01:20:14;4.10;99.90
14095;DHT22;18096;48.142;16.290;2023-11-19T01:22:40;4.20;99.90
14095;DHT22;18096;48.142;16.290;2023-11-19T01:25:06;4.20;99.90
14095;DHT22;18096;48.142;16.290;2023-11-19T01:27:32;4.20;99.90
14095;DHT22;18096;48.142;16.290;2023-11-19T01:30:00;4.20;99.90
14095;DHT22;18096;48.142;16.290;2023-11-19T01:32:28;4.20;99.90
14095;DHT22;18096;48.142;16.290;2023-11-19T01:34:54;4.20;99.90
14095;DHT22;18096;48.142;16.290;2023-11-19T01:37:19;4.30;99.90
14095;DHT22;18096;48.142;16.290;2023-11-19T01:39:45;4.30;99.90
14095;DHT22;18096;48.142;16.290;2023-11-19T01:42:11;4.30;99.90
14095;DHT22;18096;48.142;16.290;2023-11-19T01:44:41;4.30;99.90
14095;DHT22;18096;48.142;16.290;2023-11-19T01:47:08;4.30;99.90
14095;DHT22;18096;48.142;16.290;2023-11-19T01:49:34;4.30;99.90
14095;DHT22;18096;48.142;16.290;2023-11-19T01:52:00;4.30;99.90
14095;DHT22;18096;48.142;16.290;2023-11-19T01:54:26;4.30;99.90
14095;DHT22;18096;48.142;16.290;2023-11-19T01:56:54;4.30;99.90
14095;DHT22;18096;48.142;16.290;2023-11-19T01:59:22;4.30;99.90
14095;DHT22;18096;48.142;16.290;2023-11-19T02:01:54;4.30;99.90
14095;DHT22;18096;48.142;16.290;2023-11-19T02:04:20;4.30;99.90
14095;DHT22;18096;48.142;16.290;2023-11-19T02:06:48;4.30;99.90
14095;DHT22;18096;48.142;16.290;2023-11-19T02:09:14;4.30;99.90
14095;DHT22;18096;48.142;16.290;2023-11-19T02:11:40;4.30;99.90
14095;DHT22;18096;48.142;16.290;2023-11-19T02:14:06;4.40;99.90
14095;DHT22;18096;48.142;16.290;2023-11-19T02:16:32;4.40;99.90
14095;DHT22;18096;48.142;16.290;2023-11-19T02:18:57;4.40;99.90
14095;DHT22;18096;48.142;16.290;2023-11-19T02:21:23;4.50;99.90
14095;DHT22;18096;48.142;16.290;2023-11-19T02:23:49;4.50;99.90
14095;DHT22;18096;48.142;16.290;2023-11-19T02:26:24;4.50;99.90
14095;DHT22;18096;48.142;16.290;2023-11-19T02:28:50;4.50;99.90
14095;DHT22;18096;48.142;16.290;2023-11-19T02:31:16;4.60;99.90
14095;DHT22;18096;48.142;16.290;2023-11-19T02:33:42;4.60;99.90
14095;DHT22;18096;48.142;16.290;2023-11-19T02:36:08;4.60;99.90
14095;DHT22;18096;48.142;16.290;2023-11-19T02:38:34;4.60;99.90
14095;DHT22;18096;48.142;16.290;2023-11-19T02:41:04;4.60;99.90
14095;DHT22;18096;48.142;16.290;2023-11-19T02:43:33;4.60;99.90
14095;DHT22;18096;48.142;16.290;2023-11-19T02:46:03;4.60;99.90
14095;DHT22;18096;48.142;16.290;2023-11-19T02:48:36;4.50;99.90
14095;DHT22;18096;48.142;16.290;2023-11-19T02:51:02;4.50;99.90
14095;DHT22;18096;48.142;16.290;2023-11-19T02:53:29;4.50;99.90
14095;DHT22;18096;48.142;16.290;2023-11-19T02:55:55;4.40;99.90
14095;DHT22;18096;48.142;16.290;2023-11-19T02:58:31;4.40;99.90
14095;DHT22;18096;48.142;16.290;2023-11-19T03:00:57;4.40;99.90
14095;DHT22;18096;48.142;16.290;2023-11-19T03:03:26;4.40;99.90
14095;DHT22;18096;48.142;16.290;2023-11-19T03:06:07;4.30;99.90
14095;DHT22;18096;48.142;16.290;2023-11-19T03:08:35;4.30;99.90
14095;DHT22;18096;48.142;16.290;2023-11-19T03:11:01;4.30;99.90
14095;DHT22;18096;48.142;16.290;2023-11-19T03:13:27;4.30;99.90
14095;DHT22;18096;48.142;16.290;2023-11-19T03:15:53;4.30;99.90
14095;DHT22;18096;48.142;16.290;2023-11-19T03:18:19;4.30;99.90
14095;DHT22;18096;48.142;16.290;2023-11-19T03:20:46;4.30;99.90
14095;DHT22;18096;48.142;16.290;2023-11-19T03:23:12;4.20;99.90
14095;DHT22;18096;48.142;16.290;2023-11-19T03:25:38;4.20;99.90
14095;DHT22;18096;48.142;16.290;2023-11-19T03:28:04;4.30;99.90
14095;DHT22;18096;48.142;16.290;2023-11-19T03:30:30;4.30;99.90
14095;DHT22;18096;48.142;16.290;2023-11-19T03:32:56;4.20;99.90
14095;DHT22;18096;48.142;16.290;2023-11-19T03:35:23;4.20;99.90
14095;DHT22;18096;48.142;16.290;2023-11-19T03:37:49;4.20;99.90
14095;DHT22;18096;48.142;16.290;2023-11-19T03:40:16;4.20;99.90
14095;DHT22;18096;48.142;16.290;2023-11-19T03:42:41;4.20;99.90
14095;DHT22;18096;48.142;16.290;2023-11-19T03:45:07;4.20;99.90
14095;DHT22;18096;48.142;16.290;2023-11-19T03:47:36;4.20;99.90
14095;DHT22;18096;48.142;16.290;2023-11-19T03:50:02;4.20;99.90
14095;DHT22;18096;48.142;16.290;2023-11-19T03:52:29;4.20;99.90
14095;DHT22;18096;48.142;16.290;2023-11-19T03:54:55;4.20;99.90
14095;DHT22;18096;48.142;16.290;2023-11-19T03:57:21;4.20;99.90
14095;DHT22;18096;48.142;16.290;2023-11-19T03:59:47;4.20;99.90
14095;DHT22;18096;48.142;16.290;2023-11-19T04:02:13;4.20;99.90
14095;DHT22;18096;48.142;16.290;2023-11-19T04:04:39;4.20;99.90
14095;DHT22;18096;48.142;16.290;2023-11-19T04:07:05;4.20;99.90
14095;DHT22;18096;48.142;16.290;2023-11-19T04:09:31;4.20;99.90
14095;DHT22;18096;48.142;16.290;2023-11-19T04:11:59;4.20;99.90
14095;DHT22;18096;48.142;16.290;2023-11-19T04:14:26;4.20;99.90
14095;DHT22;18096;48.142;16.290;2023-11-19T04:16:51;4.20;99.90
14095;DHT22;18096;48.142;16.290;2023-11-19T04:19:18;4.20;99.90
14095;DHT22;18096;48.142;16.290;2023-11-19T04:21:44;4.20;99.90
14095;DHT22;18096;48.142;16.290;2023-11-19T04:24:09;4.20;99.90
14095;DHT22;18096;48.142;16.290;2023-11-19T04:26:44;4.20;99.90
14095;DHT22;18096;48.142;16.290;2023-11-19T04:29:15;4.10;99.90
14095;DHT22;18096;48.142;16.290;2023-11-19T04:31:43;4.10;99.90
14095;DHT22;18096;48.142;16.290;2023-11-19T04:34:09;4.20;99.90
14095;DHT22;18096;48.142;16.290;2023-11-19T04:36:36;4.10;99.90
14095;DHT22;18096;48.142;16.290;2023-11-19T04:39:03;4.20;99.90
14095;DHT22;18096;48.142;16.290;2023-11-19T04:41:48;4.20;99.90
14095;DHT22;18096;48.142;16.290;2023-11-19T04:44:15;4.20;99.90
14095;DHT22;18096;48.142;16.290;2023-11-19T04:46:41;4.20;99.90
14095;DHT22;18096;48.142;16.290;2023-11-19T04:49:09;4.20;99.90
14095;DHT22;18096;48.142;16.290;2023-11-19T04:51:42;4.20;99.90
14095;DHT22;18096;48.142;16.290;2023-11-19T04:54:09;4.20;99.90
14095;DHT22;18096;48.142;16.290;2023-11-19T04:56:36;4.20;99.90
14095;DHT22;18096;48.142;16.290;2023-11-19T04:59:03;4.20;99.90
14095;DHT22;18096;48.142;16.290;2023-11-19T05:01:29;4.20;99.90
14095;DHT22;18096;48.142;16.290;2023-11-19T05:03:57;4.20;99.90
14095;DHT22;18096;48.142;16.290;2023-11-19T05:06:26;4.20;99.90
14095;DHT22;18096;48.142;16.290;2023-11-19T05:08:52;4.20;99.90
14095;DHT22;18096;48.142;16.290;2023-11-19T05:11:19;4.20;99.90
14095;DHT22;18096;48.142;16.290;2023-11-19T05:13:45;4.30;99.90
14095;DHT22;18096;48.142;16.290;2023-11-19T05:16:11;4.30;99.90
14095;DHT22;18096;48.142;16.290;2023-11-19T05:18:39;4.30;99.90
14095;DHT22;18096;48.142;16.290;2023-11-19T05:21:05;4.30;99.90
14095;DHT22;18096;48.142;16.290;2023-11-19T05:23:32;4.30;99.90
14095;DHT22;18096;48.142;16.290;2023-11-19T05:26:00;4.30;99.90
14095;DHT22;18096;48.142;16.290;2023-11-19T05:28:25;4.20;99.90
14095;DHT22;18096;48.142;16.290;2023-11-19T05:30:51;4.20;99.90
14095;DHT22;18096;48.142;16.290;2023-11-19T05:33:17;4.20;99.90
14095;DHT22;18096;48.142;16.290;2023-11-19T05:35:42;4.30;99.90
14095;DHT22;18096;48.142;16.290;2023-11-19T05:38:08;4.30;99.90
14095;DHT22;18096;48.142;16.290;2023-11-19T05:40:35;4.30;99.90
14095;DHT22;18096;48.142;16.290;2023-11-19T05:43:01;4.30;99.90
14095;DHT22;18096;48.142;16.290;2023-11-19T05:45:27;4.30;99.90
14095;DHT22;18096;48.142;16.290;2023-11-19T05:47:52;4.20;99.90
14095;DHT22;18096;48.142;16.290;2023-11-19T05:50:18;4.20;99.90
14095;DHT22;18096;48.142;16.290;2023-11-19T05:52:45;4.20;99.90
14095;DHT22;18096;48.142;16.290;2023-11-19T05:55:11;4.20;99.90
14095;DHT22;18096;48.142;16.290;2023-11-19T05:57:39;4.10;99.90
14095;DHT22;18096;48.142;16.290;2023-11-19T06:00:08;4.10;99.90
14095;DHT22;18096;48.142;16.290;2023-11-19T06:02:34;4.10;99.90
14095;DHT22;18096;48.142;16.290;2023-11-19T06:05:00;4.10;99.90
14095;DHT22;18096;48.142;16.290;2023-11-19T06:07:26;4.20;99.90
14095;DHT22;18096;48.142;16.290;2023-11-19T06:09:52;4.20;99.90
14095;DHT22;18096;48.142;16.290;2023-11-19T06:12:17;4.20;99.90
14095;DHT22;18096;48.142;16.290;2023-11-19T06:14:43;4.20;99.90
14095;DHT22;18096;48.142;16.290;2023-11-19T06:17:09;4.20;99.90
14095;DHT22;18096;48.142;16.290;2023-11-19T06:19:36;4.20;99.90
14095;DHT22;18096;48.142;16.290;2023-11-19T06:22:03;4.20;99.90
14095;DHT22;18096;48.142;16.290;2023-11-19T06:24:28;4.20;99.90
14095;DHT22;18096;48.142;16.290;2023-11-19T06:26:54;4.20;99.90
14095;DHT22;18096;48.142;16.290;2023-11-19T06:29:19;4.20;99.90
14095;DHT22;18096;48.142;16.290;2023-11-19T06:31:45;4.20;99.90
14095;DHT22;18096;48.142;16.290;2023-11-19T06:34:14;4.30;99.90
14095;DHT22;18096;48.142;16.290;2023-11-19T06:36:39;4.30;99.90
14095;DHT22;18096;48.142;16.290;2023-11-19T06:39:05;4.30;99.90
14095;DHT22;18096;48.142;16.290;2023-11-19T06:41:31;4.30;99.90
14095;DHT22;18096;48.142;16.290;2023-11-19T06:43:57;4.30;99.90
14095;DHT22;18096;48.142;16.290;2023-11-19T06:46:22;4.40;99.90
14095;DHT22;18096;48.142;16.290;2023-11-19T06:48:48;4.40;99.90
14095;DHT22;18096;48.142;16.290;2023-11-19T06:51:13;4.40;99.90
14095;DHT22;18096;48.142;16.290;2023-11-19T06:53:39;4.30;99.90
14095;DHT22;18096;48.142;16.290;2023-11-19T06:56:16;4.40;99.90
14095;DHT22;18096;48.142;16.290;2023-11-19T06:58:42;4.40;99.90
14095;DHT22;18096;48.142;16.290;2023-11-19T07:01:08;4.30;99.90
14095;DHT22;18096;48.142;16.290;2023-11-19T07:03:35;4.40;99.90
14095;DHT22;18096;48.142;16.290;2023-11-19T07:06:00;4.40;99.90
14095;DHT22;18096;48.142;16.290;2023-11-19T07:08:26;4.40;99.90
14095;DHT22;18096;48.142;16.290;2023-11-19T07:10:52;4.40;99.90
14095;DHT22;18096;48.142;16.290;2023-11-19T07:13:18;4.40;99.90
14095;DHT22;18096;48.142;16.290;2023-11-19T07:15:44;4.40;99.90
14095;DHT22;18096;48.142;16.290;2023-11-19T07:18:10;4.40;99.90
14095;DHT22;18096;48.142;16.290;2023-11-19T07:20:38;4.50;99.90
14095;DHT22;18096;48.142;16.290;2023-11-19T07:23:05;4.50;99.90
14095;DHT22;18096;48.142;16.290;2023-11-19T07:25:31;4.50;99.90
14095;DHT22;18096;48.142;16.290;2023-11-19T07:27:57;4.60;99.90
14095;DHT22;18096;48.142;16.290;2023-11-19T07:30:22;4.60;99.90
14095;DHT22;18096;48.142;16.290;2023-11-19T07:32:48;4.60;99.90
14095;DHT22;18096;48.142;16.290;2023-11-19T07:35:14;4.60;99.90
14095;DHT22;18096;48.142;16.290;2023-11-19T07:37:41;4.60;99.90
14095;DHT22;18096;48.142;16.290;2023-11-19T07:40:08;4.60;99.90
14095;DHT22;18096;48.142;16.290;2023-11-19T07:42:33;4.60;99.90
14095;DHT22;18096;48.142;16.290;2023-11-19T07:44:59;4.60;99.90
14095;DHT22;18096;48.142;16.290;2023-11-19T07:47:24;4.60;99.90
14095;DHT22;18096;48.142;16.290;2023-11-19T07:49:51;4.60;99.90
14095;DHT22;18096;48.142;16.290;2023-11-19T07:52:16;4.60;99.90
14095;DHT22;18096;48.142;16.290;2023-11-19T07:54:42;4.70;99.90
14095;DHT22;18096;48.142;16.290;2023-11-19T07:57:08;4.70;99.90
14095;DHT22;18096;48.142;16.290;2023-11-19T07:59:33;4.70;99.90
14095;DHT22;18096;48.142;16.290;2023-11-19T08:01:59;4.70;99.90
14095;DHT22;18096;48.142;16.290;2023-11-19T08:04:24;4.70;99.90
14095;DHT22;18096;48.142;16.290;2023-11-19T08:06:50;4.70;99.90
14095;DHT22;18096;48.142;16.290;2023-11-19T08:09:17;4.70;99.90
14095;DHT22;18096;48.142;16.290;2023-11-19T08:11:43;4.70;99.90
14095;DHT22;18096;48.142;16.290;2023-11-19T08:14:08;4.80;99.90
14095;DHT22;18096;48.142;16.290;2023-11-19T08:16:34;4.80;99.90
14095;DHT22;18096;48.142;16.290;2023-11-19T08:19:00;4.90;99.90
14095;DHT22;18096;48.142;16.290;2023-11-19T08:21:25;4.80;99.90
14095;DHT22;18096;48.142;16.290;2023-11-19T08:23:52;4.90;99.90
14095;DHT22;18096;48.142;16.290;2023-11-19T08:26:18;5.00;99.90
14095;DHT22;18096;48.142;16.290;2023-11-19T08:28:43;5.00;99.90
14095;DHT22;18096;48.142;16.290;2023-11-19T08:31:09;5.00;99.90
14095;DHT22;18096;48.142;16.290;2023-11-19T08:33:34;5.00;99.90
14095;DHT22;18096;48.142;16.290;2023-11-19T08:36:01;5.10;99.90
14095;DHT22;18096;48.142;16.290;2023-11-19T08:38:26;5.10;99.90
14095;DHT22;18096;48.142;16.290;2023-11-19T08:40:52;5.20;99.90
14095;DHT22;18096;48.142;16.290;2023-11-19T08:43:18;5.20;99.90
14095;DHT22;18096;48.142;16.290;2023-11-19T08:51:39;5.30;99.90
14095;DHT22;18096;48.142;16.290;2023-11-19T08:54:04;5.30;99.90
14095;DHT22;18096;48.142;16.290;2023-11-19T08:56:30;5.30;99.90
14095;DHT22;18096;48.142;16.290;2023-11-19T08:58:58;5.40;99.90
14095;DHT22;18096;48.142;16.290;2023-11-19T09:01:24;5.30;99.90
14095;DHT22;18096;48.142;16.290;2023-11-19T09:03:50;5.40;99.90
14095;DHT22;18096;48.142;16.290;2023-11-19T09:06:15;5.50;99.90
14095;DHT22;18096;48.142;16.290;2023-11-19T09:08:42;5.50;99.90
14095;DHT22;18096;48.142;16.290;2023-11-19T09:11:09;5.50;99.90
14095;DHT22;18096;48.142;16.290;2023-11-19T09:13:35;5.50;99.90
14095;DHT22;18096;48.142;16.290;2023-11-19T09:16:01;5.50;99.90
14095;DHT22;18096;48.142;16.290;2023-11-19T09:18:30;5.50;99.90
14095;DHT22;18096;48.142;16.290;2023-11-19T09:20:55;5.60;99.90
14095;DHT22;18096;48.142;16.290;2023-11-19T09:23:21;5.60;99.90
14095;DHT22;18096;48.142;16.290;2023-11-19T09:25:47;5.70;99.90
14095;DHT22;18096;48.142;16.290;2023-11-19T09:28:12;5.70;99.90
14095;DHT22;18096;48.142;16.290;2023-11-19T09:30:39;5.70;99.90
14095;DHT22;18096;48.142;16.290;2023-11-19T09:33:05;5.80;99.90
14095;DHT22;18096;48.142;16.290;2023-11-19T09:35:31;5.80;99.90
14095;DHT22;18096;48.142;16.290;2023-11-19T09:37:56;5.80;99.90
14095;DHT22;18096;48.142;16.290;2023-11-19T09:40:22;5.90;99.90
14095;DHT22;18096;48.142;16.290;2023-11-19T09:42:48;5.90;99.90
14095;DHT22;18096;48.142;16.290;2023-11-19T09:45:15;6.00;99.90
14095;DHT22;18096;48.142;16.290;2023-11-19T09:47:43;6.00;99.90
14095;DHT22;18096;48.142;16.290;2023-11-19T09:50:17;6.10;99.90
14095;DHT22;18096;48.142;16.290;2023-11-19T09:52:47;6.10;99.90
14095;DHT22;18096;48.142;16.290;2023-11-19T09:55:13;6.20;99.90
14095;DHT22;18096;48.142;16.290;2023-11-19T09:57:47;6.10;99.90
14095;DHT22;18096;48.142;16.290;2023-11-19T10:00:15;6.10;99.90
14095;DHT22;18096;48.142;16.290;2023-11-19T10:02:41;6.10;99.90
14095;DHT22;18096;48.142;16.290;2023-11-19T10:05:07;6.10;99.90
14095;DHT22;18096;48.142;16.290;2023-11-19T10:07:33;6.10;99.90
14095;DHT22;18096;48.142;16.290;2023-11-19T10:10:00;6.10;99.90
14095;DHT22;18096;48.142;16.290;2023-11-19T10:12:27;6.00;99.90
14095;DHT22;18096;48.142;16.290;2023-11-19T10:14:58;6.00;99.90
14095;DHT22;18096;48.142;16.290;2023-11-19T10:17:33;6.00;99.90
14095;DHT22;18096;48.142;16.290;2023-11-19T10:19:58;6.00;99.90
14095;DHT22;18096;48.142;16.290;2023-11-19T10:22:25;6.10;99.90
14095;DHT22;18096;48.142;16.290;2023-11-19T10:24:52;6.00;99.90
14095;DHT22;18096;48.142;16.290;2023-11-19T10:27:17;6.10;99.90
14095;DHT22;18096;48.142;16.290;2023-11-19T10:29:47;6.00;99.90
14095;DHT22;18096;48.142;16.290;2023-11-19T10:32:13;6.10;99.90
14095;DHT22;18096;48.142;16.290;2023-11-19T10:34:40;6.10;99.90
14095;DHT22;18096;48.142;16.290;2023-11-19T10:37:07;6.00;99.90
14095;DHT22;18096;48.142;16.290;2023-11-19T10:39:52;6.10;99.90
14095;DHT22;18096;48.142;16.290;2023-11-19T10:42:20;6.10;99.90
14095;DHT22;18096;48.142;16.290;2023-11-19T10:44:46;6.10;99.90
14095;DHT22;18096;48.142;16.290;2023-11-19T10:47:14;6.10;99.90
14095;DHT22;18096;48.142;16.290;2023-11-19T10:49:40;6.20;99.90
14095;DHT22;18096;48.142;16.290;2023-11-19T10:52:08;6.20;99.90
14095;DHT22;18096;48.142;16.290;2023-11-19T10:54:35;6.20;99.90
14095;DHT22;18096;48.142;16.290;2023-11-19T10:57:02;6.20;99.90
14095;DHT22;18096;48.142;16.290;2023-11-19T10:59:30;6.20;99.90
14095;DHT22;18096;48.142;16.290;2023-11-19T11:01:57;6.30;99.90
14095;DHT22;18096;48.142;16.290;2023-11-19T11:04:26;6.30;99.90
14095;DHT22;18096;48.142;16.290;2023-11-19T11:06:57;6.30;99.90
14095;DHT22;18096;48.142;16.290;2023-11-19T11:09:29;6.30;99.90
14095;DHT22;18096;48.142;16.290;2023-11-19T11:11:56;6.40;99.90
14095;DHT22;18096;48.142;16.290;2023-11-19T11:14:24;6.40;99.90
14095;DHT22;18096;48.142;16.290;2023-11-19T11:16:51;6.40;99.90
14095;DHT22;18096;48.142;16.290;2023-11-19T11:19:18;6.50;99.90
14095;DHT22;18096;48.142;16.290;2023-11-19T11:21:49;6.50;99.90
14095;DHT22;18096;48.142;16.290;2023-11-19T11:24:35;6.50;99.90
14095;DHT22;18096;48.142;16.290;2023-11-19T11:35:53;6.70;99.90
14095;DHT22;18096;48.142;16.290;2023-11-19T11:38:23;6.70;99.90
14095;DHT22;18096;48.142;16.290;2023-11-19T11:41:18;6.70;99.90
14095;DHT22;18096;48.142;16.290;2023-11-19T11:43:52;6.70;99.90
14095;DHT22;18096;48.142;16.290;2023-11-19T11:49:08;6.70;99.90
14095;DHT22;18096;48.142;16.290;2023-11-19T11:57:07;6.70;99.90
14095;DHT22;18096;48.142;16.290;2023-11-19T12:02:28;6.60;99.90
14095;DHT22;18096;48.142;16.290;2023-11-19T12:04:54;6.60;99.90
14095;DHT22;18096;48.142;16.290;2023-11-19T12:07:22;6.60;99.90
14095;DHT22;18096;48.142;16.290;2023-11-19T12:10:08;6.70;99.90
14095;DHT22;18096;48.142;16.290;2023-11-19T12:12:36;6.70;99.90
14095;DHT22;18096;48.142;16.290;2023-11-19T12:15:08;6.70;99.90
14095;DHT22;18096;48.142;16.290;2023-11-19T12:20:07;6.80;99.90
14095;DHT22;18096;48.142;16.290;2023-11-19T12:22:40;6.80;99.90
14095;DHT22;18096;48.142;16.290;2023-11-19T12:31:54;6.80;99.90
14095;DHT22;18096;48.142;16.290;2023-11-19T12:34:20;6.80;99.90
14095;DHT22;18096;48.142;16.290;2023-11-19T12:36:48;6.80;99.90
14095;DHT22;18096;48.142;16.290;2023-11-19T12:39:14;6.80;99.90
14095;DHT22;18096;48.142;16.290;2023-11-19T12:41:50;6.80;99.90
14095;DHT22;18096;48.142;16.290;2023-11-19T12:44:16;6.80;99.90
14095;DHT22;18096;48.142;16.290;2023-11-19T12:46:42;6.90;99.90
14095;DHT22;18096;48.142;16.290;2023-11-19T12:49:07;6.90;99.90
14095;DHT22;18096;48.142;16.290;2023-11-19T12:51:36;6.90;99.90
14095;DHT22;18096;48.142;16.290;2023-11-19T12:54:02;6.90;99.90
14095;DHT22;18096;48.142;16.290;2023-11-19T12:56:27;6.90;99.90
14095;DHT22;18096;48.142;16.290;2023-11-19T12:58:55;6.90;99.90
14095;DHT22;18096;48.142;16.290;2023-11-19T13:01:20;6.90;99.90
14095;DHT22;18096;48.142;16.290;2023-11-19T13:03:46;6.90;99.90
14095;DHT22;18096;48.142;16.290;2023-11-19T13:06:15;6.90;99.90
14095;DHT22;18096;48.142;16.290;2023-11-19T13:08:48;6.90;99.90
14095;DHT22;18096;48.142;16.290;2023-11-19T13:11:34;6.90;99.90
14095;DHT22;18096;48.142;16.290;2023-11-19T13:14:04;6.90;99.90
14095;DHT22;18096;48.142;16.290;2023-11-19T13:16:30;6.90;99.90
14095;DHT22;18096;48.142;16.290;2023-11-19T13:18:57;6.90;99.90
14095;DHT22;18096;48.142;16.290;2023-11-19T13:21:23;6.90;99.90
14095;DHT22;18096;48.142;16.290;2023-11-19T13:23:49;6.90;99.90
14095;DHT22;18096;48.142;16.290;2023-11-19T13:26:15;6.90;99.90
14095;DHT22;18096;48.142;16.290;2023-11-19T13:28:41;6.90;99.90
14095;DHT22;18096;48.142;16.290;2023-11-19T13:31:07;7.00;99.90
14095;DHT22;18096;48.142;16.290;2023-11-19T13:33:33;7.00;99.90
14095;DHT22;18096;48.142;16.290;2023-11-19T13:35:58;7.00;99.90
14095;DHT22;18096;48.142;16.290;2023-11-19T13:38:27;7.00;99.90
14095;DHT22;18096;48.142;16.290;2023-11-19T13:40:52;6.90;99.90
14095;DHT22;18096;48.142;16.290;2023-11-19T13:43:18;6.90;99.90
14095;DHT22;18096;48.142;16.290;2023-11-19T13:45:43;6.90;99.90
14095;DHT22;18096;48.142;16.290;2023-11-19T13:48:09;6.90;99.90
14095;DHT22;18096;48.142;16.290;2023-11-19T13:50:35;7.00;99.90
14095;DHT22;18096;48.142;16.290;2023-11-19T13:53:00;7.00;99.90
14095;DHT22;18096;48.142;16.290;2023-11-19T13:55:26;7.00;99.90
14095;DHT22;18096;48.142;16.290;2023-11-19T13:57:52;7.00;99.90
14095;DHT22;18096;48.142;16.290;2023-11-19T14:00:18;7.00;99.90
14095;DHT22;18096;48.142;16.290;2023-11-19T14:02:46;7.00;99.90
14095;DHT22;18096;48.142;16.290;2023-11-19T14:05:15;7.00;99.90
14095;DHT22;18096;48.142;16.290;2023-11-19T14:07:43;7.10;99.90
14095;DHT22;18096;48.142;16.290;2023-11-19T14:10:09;7.10;99.90
14095;DHT22;18096;48.142;16.290;2023-11-19T14:12:37;7.00;99.90
14095;DHT22;18096;48.142;16.290;2023-11-19T14:15:04;7.00;99.90
14095;DHT22;18096;48.142;16.290;2023-11-19T14:17:31;7.00;99.90
14095;DHT22;18096;48.142;16.290;2023-11-19T14:19:57;7.00;99.90
14095;DHT22;18096;48.142;16.290;2023-11-19T14:22:23;7.00;99.90
14095;DHT22;18096;48.142;16.290;2023-11-19T14:24:49;7.00;99.90
14095;DHT22;18096;48.142;16.290;2023-11-19T14:27:14;7.10;99.90
14095;DHT22;18096;48.142;16.290;2023-11-19T14:29:42;7.00;99.90
14095;DHT22;18096;48.142;16.290;2023-11-19T14:32:08;7.00;99.90
14095;DHT22;18096;48.142;16.290;2023-11-19T14:34:34;7.00;99.90
14095;DHT22;18096;48.142;16.290;2023-11-19T14:36:59;7.00;99.90
14095;DHT22;18096;48.142;16.290;2023-11-19T14:39:26;7.00;99.90
14095;DHT22;18096;48.142;16.290;2023-11-19T14:41:51;7.00;99.90
14095;DHT22;18096;48.142;16.290;2023-11-19T14:44:19;7.00;99.90
14095;DHT22;18096;48.142;16.290;2023-11-19T14:46:46;7.00;99.90
14095;DHT22;18096;48.142;16.290;2023-11-19T14:49:12;7.00;99.90
14095;DHT22;18096;48.142;16.290;2023-11-19T14:51:39;7.00;99.90
14095;DHT22;18096;48.142;16.290;2023-11-19T14:54:05;7.00;99.90
14095;DHT22;18096;48.142;16.290;2023-11-19T14:56:31;7.00;99.90
14095;DHT22;18096;48.142;16.290;2023-11-19T14:58:57;7.00;99.90
14095;DHT22;18096;48.142;16.290;2023-11-19T15:01:24;7.00;99.90
14095;DHT22;18096;48.142;16.290;2023-11-19T15:03:50;7.00;99.90
14095;DHT22;18096;48.142;16.290;2023-11-19T15:06:16;7.00;99.90
14095;DHT22;18096;48.142;16.290;2023-11-19T15:08:42;7.00;99.90
14095;DHT22;18096;48.142;16.290;2023-11-19T15:11:08;7.00;99.90
14095;DHT22;18096;48.142;16.290;2023-11-19T15:13:35;7.00;99.90
14095;DHT22;18096;48.142;16.290;2023-11-19T15:16:03;7.00;99.90
14095;DHT22;18096;48.142;16.290;2023-11-19T15:18:31;7.00;99.90
14095;DHT22;18096;48.142;16.290;2023-11-19T15:20:57;7.00;99.90
14095;DHT22;18096;48.142;16.290;2023-11-19T15:23:23;7.00;99.90
14095;DHT22;18096;48.142;16.290;2023-11-19T15:25:48;6.90;99.90
14095;DHT22;18096;48.142;16.290;2023-11-19T15:28:15;6.90;99.90
14095;DHT22;18096;48.142;16.290;2023-11-19T15:30:40;6.90;99.90
14095;DHT22;18096;48.142;16.290;2023-11-19T15:33:06;6.90;99.90
14095;DHT22;18096;48.142;16.290;2023-11-19T15:35:34;6.90;99.90
14095;DHT22;18096;48.142;16.290;2023-11-19T15:38:00;6.90;99.90
14095;DHT22;18096;48.142;16.290;2023-11-19T15:40:25;6.80;99.90
14095;DHT22;18096;48.142;16.290;2023-11-19T15:42:52;6.80;99.90
14095;DHT22;18096;48.142;16.290;2023-11-19T15:45:20;6.80;99.90
14095;DHT22;18096;48.142;16.290;2023-11-19T15:47:46;6.80;99.90
14095;DHT22;18096;48.142;16.290;2023-11-19T15:50:11;6.70;99.90
14095;DHT22;18096;48.142;16.290;2023-11-19T15:52:37;6.70;99.90
14095;DHT22;18096;48.142;16.290;2023-11-19T15:55:04;6.70;99.90
14095;DHT22;18096;48.142;16.290;2023-11-19T15:57:29;6.70;99.90
14095;DHT22;18096;48.142;16.290;2023-11-19T15:59:55;6.70;99.90
14095;DHT22;18096;48.142;16.290;2023-11-19T16:02:21;6.70;99.90
14095;DHT22;18096;48.142;16.290;2023-11-19T16:04:46;6.60;99.90